Zonguldak, Turkey
Current Conditions -  °F | °C
As of 6:50 AM on Tuesday 23 Dec 2014 (Local Time) from LTBQ Reporting Station
Broken Clouds Broken Clouds  
Wind Chill: 41°   Ceiling: 4500
Heat Index: 45°   Visibility: 6mi
Dew Point: 30°   Wind: 7mph
Humidity: 57%   Direction: 250°WSW
Pressure: 30.15"   Gusts: NA
Location:  41.46°N, 31.8°E
Report Text: LTBQ 230350Z 25006KT 220V280 9999 BKN045 07/M01 Q1021 NOSIG
Loading
Personal Weather Stations






























Interactive Weather Map New forecast layout! Learn more

10-Day Weather Forecast

Advertisements
Track Severe Weather on mobile